sensor_id;sensor_type;location;lat;lon;timestamp;P1;durP1;ratioP1;P2;durP2;ratioP2
15096;SDS011;7649;52.084;7.478;2023-02-19T00:01:42;12.03;;;9.97;;
15096;SDS011;7649;52.084;7.478;2023-02-19T00:04:11;10.57;;;9.47;;
15096;SDS011;7649;52.084;7.478;2023-02-19T00:06:41;11.70;;;10.50;;
15096;SDS011;7649;52.084;7.478;2023-02-19T00:09:10;12.77;;;10.97;;
15096;SDS011;7649;52.084;7.478;2023-02-19T00:11:39;12.40;;;11.10;;
15096;SDS011;7649;52.084;7.478;2023-02-19T00:14:07;13.77;;;11.07;;
15096;SDS011;7649;52.084;7.478;2023-02-19T00:16:36;15.03;;;12.57;;
15096;SDS011;7649;52.084;7.478;2023-02-19T00:19:05;15.30;;;12.90;;
15096;SDS011;7649;52.084;7.478;2023-02-19T00:21:34;17.23;;;13.67;;
15096;SDS011;7649;52.084;7.478;2023-02-19T00:24:04;16.30;;;13.50;;
15096;SDS011;7649;52.084;7.478;2023-02-19T00:26:33;15.27;;;13.60;;
15096;SDS011;7649;52.084;7.478;2023-02-19T00:29:01;16.70;;;13.93;;
15096;SDS011;7649;52.084;7.478;2023-02-19T00:31:30;18.90;;;14.83;;
15096;SDS011;7649;52.084;7.478;2023-02-19T00:34:00;22.67;;;15.17;;
15096;SDS011;7649;52.084;7.478;2023-02-19T00:36:29;17.17;;;14.53;;
15096;SDS011;7649;52.084;7.478;2023-02-19T00:38:57;20.00;;;15.10;;
15096;SDS011;7649;52.084;7.478;2023-02-19T00:41:27;18.17;;;15.37;;
15096;SDS011;7649;52.084;7.478;2023-02-19T00:43:56;20.60;;;15.03;;
15096;SDS011;7649;52.084;7.478;2023-02-19T00:46:30;20.93;;;15.50;;
15096;SDS011;7649;52.084;7.478;2023-02-19T00:48:59;20.17;;;15.57;;
15096;SDS011;7649;52.084;7.478;2023-02-19T00:51:29;20.23;;;15.80;;
15096;SDS011;7649;52.084;7.478;2023-02-19T00:53:58;22.93;;;15.50;;
15096;SDS011;7649;52.084;7.478;2023-02-19T00:56:28;21.33;;;15.30;;
15096;SDS011;7649;52.084;7.478;2023-02-19T00:58:56;18.67;;;14.23;;
15096;SDS011;7649;52.084;7.478;2023-02-19T01:01:25;22.77;;;14.77;;
15096;SDS011;7649;52.084;7.478;2023-02-19T01:03:53;18.83;;;14.20;;
15096;SDS011;7649;52.084;7.478;2023-02-19T01:06:21;18.93;;;14.30;;
15096;SDS011;7649;52.084;7.478;2023-02-19T01:08:50;19.17;;;14.87;;
15096;SDS011;7649;52.084;7.478;2023-02-19T01:11:18;20.00;;;14.03;;
15096;SDS011;7649;52.084;7.478;2023-02-19T01:13:48;20.03;;;14.70;;
15096;SDS011;7649;52.084;7.478;2023-02-19T01:16:17;21.67;;;15.40;;
15096;SDS011;7649;52.084;7.478;2023-02-19T01:18:46;21.30;;;15.10;;
15096;SDS011;7649;52.084;7.478;2023-02-19T01:21:15;19.87;;;14.77;;
15096;SDS011;7649;52.084;7.478;2023-02-19T01:23:44;19.33;;;13.63;;
15096;SDS011;7649;52.084;7.478;2023-02-19T01:26:13;20.77;;;14.13;;
15096;SDS011;7649;52.084;7.478;2023-02-19T01:28:41;21.53;;;13.87;;
15096;SDS011;7649;52.084;7.478;2023-02-19T01:31:12;20.83;;;14.30;;
15096;SDS011;7649;52.084;7.478;2023-02-19T01:33:42;17.13;;;13.90;;
15096;SDS011;7649;52.084;7.478;2023-02-19T01:36:12;16.77;;;13.50;;
15096;SDS011;7649;52.084;7.478;2023-02-19T01:38:40;18.63;;;13.50;;
15096;SDS011;7649;52.084;7.478;2023-02-19T01:41:09;18.70;;;13.67;;
15096;SDS011;7649;52.084;7.478;2023-02-19T01:46:25;19.60;;;14.87;;
15096;SDS011;7649;52.084;7.478;2023-02-19T01:48:53;22.60;;;15.73;;
15096;SDS011;7649;52.084;7.478;2023-02-19T01:51:22;24.27;;;16.60;;
15096;SDS011;7649;52.084;7.478;2023-02-19T01:53:51;25.40;;;16.93;;
15096;SDS011;7649;52.084;7.478;2023-02-19T01:56:21;25.53;;;17.60;;
15096;SDS011;7649;52.084;7.478;2023-02-19T01:58:50;27.83;;;18.23;;
15096;SDS011;7649;52.084;7.478;2023-02-19T02:01:21;25.43;;;18.00;;
15096;SDS011;7649;52.084;7.478;2023-02-19T02:03:51;26.70;;;18.30;;
15096;SDS011;7649;52.084;7.478;2023-02-19T02:06:20;20.73;;;16.63;;
15096;SDS011;7649;52.084;7.478;2023-02-19T02:08:50;26.20;;;18.13;;
15096;SDS011;7649;52.084;7.478;2023-02-19T02:11:37;26.57;;;18.37;;
15096;SDS011;7649;52.084;7.478;2023-02-19T02:14:07;25.77;;;17.40;;
15096;SDS011;7649;52.084;7.478;2023-02-19T02:16:38;28.60;;;17.97;;
15096;SDS011;7649;52.084;7.478;2023-02-19T02:19:15;28.70;;;18.10;;
15096;SDS011;7649;52.084;7.478;2023-02-19T02:27:34;29.20;;;18.47;;
15096;SDS011;7649;52.084;7.478;2023-02-19T02:30:15;28.03;;;17.77;;
15096;SDS011;7649;52.084;7.478;2023-02-19T02:32:49;26.77;;;18.07;;
15096;SDS011;7649;52.084;7.478;2023-02-19T02:35:19;26.17;;;17.10;;
15096;SDS011;7649;52.084;7.478;2023-02-19T02:37:49;29.13;;;18.30;;
15096;SDS011;7649;52.084;7.478;2023-02-19T02:40:18;26.67;;;16.37;;
15096;SDS011;7649;52.084;7.478;2023-02-19T02:42:46;22.13;;;16.13;;
15096;SDS011;7649;52.084;7.478;2023-02-19T02:45:22;22.93;;;17.00;;
15096;SDS011;7649;52.084;7.478;2023-02-19T02:48:14;23.60;;;16.17;;
15096;SDS011;7649;52.084;7.478;2023-02-19T02:50:45;24.33;;;16.80;;
15096;SDS011;7649;52.084;7.478;2023-02-19T02:53:14;22.67;;;15.27;;
15096;SDS011;7649;52.084;7.478;2023-02-19T02:56:02;20.07;;;14.80;;
15096;SDS011;7649;52.084;7.478;2023-02-19T02:58:31;22.73;;;15.93;;
15096;SDS011;7649;52.084;7.478;2023-02-19T03:01:03;20.97;;;14.97;;
15096;SDS011;7649;52.084;7.478;2023-02-19T03:03:52;15.43;;;13.13;;
15096;SDS011;7649;52.084;7.478;2023-02-19T03:06:21;16.37;;;12.97;;
15096;SDS011;7649;52.084;7.478;2023-02-19T03:08:52;14.13;;;12.03;;
15096;SDS011;7649;52.084;7.478;2023-02-19T03:11:21;14.90;;;11.83;;
15096;SDS011;7649;52.084;7.478;2023-02-19T03:14:08;14.47;;;10.83;;
15096;SDS011;7649;52.084;7.478;2023-02-19T03:16:58;17.07;;;11.00;;
15096;SDS011;7649;52.084;7.478;2023-02-19T03:19:46;13.63;;;10.63;;
15096;SDS011;7649;52.084;7.478;2023-02-19T03:22:18;14.77;;;10.77;;
15096;SDS011;7649;52.084;7.478;2023-02-19T03:24:48;15.17;;;10.70;;
15096;SDS011;7649;52.084;7.478;2023-02-19T03:27:35;13.07;;;10.67;;
15096;SDS011;7649;52.084;7.478;2023-02-19T03:30:06;14.50;;;10.60;;
15096;SDS011;7649;52.084;7.478;2023-02-19T03:32:38;12.90;;;10.40;;
15096;SDS011;7649;52.084;7.478;2023-02-19T03:35:08;11.93;;;10.30;;
15096;SDS011;7649;52.084;7.478;2023-02-19T03:37:40;14.30;;;11.63;;
15096;SDS011;7649;52.084;7.478;2023-02-19T03:40:11;13.50;;;11.07;;
15096;SDS011;7649;52.084;7.478;2023-02-19T03:42:41;13.23;;;10.27;;
15096;SDS011;7649;52.084;7.478;2023-02-19T03:45:14;14.00;;;10.93;;
15096;SDS011;7649;52.084;7.478;2023-02-19T03:47:48;12.97;;;10.07;;
15096;SDS011;7649;52.084;7.478;2023-02-19T03:50:18;12.50;;;9.47;;
15096;SDS011;7649;52.084;7.478;2023-02-19T03:52:51;12.53;;;10.13;;
15096;SDS011;7649;52.084;7.478;2023-02-19T03:55:22;16.67;;;10.00;;
15096;SDS011;7649;52.084;7.478;2023-02-19T03:57:54;15.30;;;9.23;;
15096;SDS011;7649;52.084;7.478;2023-02-19T04:00:24;13.33;;;9.77;;
15096;SDS011;7649;52.084;7.478;2023-02-19T04:02:59;17.23;;;9.50;;
15096;SDS011;7649;52.084;7.478;2023-02-19T04:05:29;14.87;;;9.60;;
15096;SDS011;7649;52.084;7.478;2023-02-19T04:08:06;12.40;;;9.07;;
15096;SDS011;7649;52.084;7.478;2023-02-19T04:10:36;13.60;;;9.17;;
15096;SDS011;7649;52.084;7.478;2023-02-19T04:13:06;12.10;;;8.57;;
15096;SDS011;7649;52.084;7.478;2023-02-19T04:15:36;12.83;;;8.53;;
15096;SDS011;7649;52.084;7.478;2023-02-19T04:18:10;11.53;;;9.27;;
15096;SDS011;7649;52.084;7.478;2023-02-19T04:20:41;12.30;;;8.80;;
15096;SDS011;7649;52.084;7.478;2023-02-19T04:23:10;13.03;;;8.37;;
15096;SDS011;7649;52.084;7.478;2023-02-19T04:25:38;12.87;;;8.47;;
15096;SDS011;7649;52.084;7.478;2023-02-19T04:28:08;12.43;;;7.93;;
15096;SDS011;7649;52.084;7.478;2023-02-19T04:30:36;11.27;;;7.87;;
15096;SDS011;7649;52.084;7.478;2023-02-19T04:33:04;10.97;;;8.27;;
15096;SDS011;7649;52.084;7.478;2023-02-19T04:35:34;10.10;;;8.30;;
15096;SDS011;7649;52.084;7.478;2023-02-19T04:38:02;10.73;;;8.13;;
15096;SDS011;7649;52.084;7.478;2023-02-19T04:40:31;11.30;;;8.50;;
15096;SDS011;7649;52.084;7.478;2023-02-19T04:42:59;12.00;;;9.13;;
15096;SDS011;7649;52.084;7.478;2023-02-19T04:45:27;9.60;;;8.60;;
15096;SDS011;7649;52.084;7.478;2023-02-19T04:47:56;10.73;;;8.20;;
15096;SDS011;7649;52.084;7.478;2023-02-19T04:50:24;15.87;;;9.67;;
15096;SDS011;7649;52.084;7.478;2023-02-19T04:52:54;12.10;;;8.63;;
15096;SDS011;7649;52.084;7.478;2023-02-19T04:55:22;13.07;;;8.90;;
15096;SDS011;7649;52.084;7.478;2023-02-19T04:57:50;11.83;;;8.23;;
15096;SDS011;7649;52.084;7.478;2023-02-19T05:00:19;10.33;;;8.50;;
15096;SDS011;7649;52.084;7.478;2023-02-19T05:02:47;11.40;;;8.23;;
15096;SDS011;7649;52.084;7.478;2023-02-19T05:05:15;9.97;;;8.20;;
15096;SDS011;7649;52.084;7.478;2023-02-19T05:07:43;10.93;;;8.23;;
15096;SDS011;7649;52.084;7.478;2023-02-19T05:10:13;11.30;;;8.10;;
15096;SDS011;7649;52.084;7.478;2023-02-19T05:12:41;11.40;;;8.13;;
15096;SDS011;7649;52.084;7.478;2023-02-19T05:15:10;8.90;;;7.60;;
15096;SDS011;7649;52.084;7.478;2023-02-19T05:17:38;9.97;;;8.10;;
15096;SDS011;7649;52.084;7.478;2023-02-19T05:20:07;10.80;;;7.60;;
15096;SDS011;7649;52.084;7.478;2023-02-19T05:22:35;9.63;;;7.73;;
15096;SDS011;7649;52.084;7.478;2023-02-19T05:25:04;10.07;;;8.00;;
15096;SDS011;7649;52.084;7.478;2023-02-19T05:27:33;12.50;;;8.27;;
15096;SDS011;7649;52.084;7.478;2023-02-19T05:30:02;11.70;;;7.83;;
15096;SDS011;7649;52.084;7.478;2023-02-19T05:32:30;7.80;;;6.87;;
15096;SDS011;7649;52.084;7.478;2023-02-19T05:34:59;8.80;;;6.63;;
15096;SDS011;7649;52.084;7.478;2023-02-19T05:37:27;10.07;;;7.17;;
15096;SDS011;7649;52.084;7.478;2023-02-19T05:39:55;10.27;;;6.67;;
15096;SDS011;7649;52.084;7.478;2023-02-19T05:42:23;10.53;;;7.03;;
15096;SDS011;7649;52.084;7.478;2023-02-19T05:44:53;10.17;;;7.07;;
15096;SDS011;7649;52.084;7.478;2023-02-19T05:47:21;10.53;;;6.57;;
15096;SDS011;7649;52.084;7.478;2023-02-19T05:49:49;9.20;;;6.50;;
15096;SDS011;7649;52.084;7.478;2023-02-19T05:52:18;9.87;;;6.90;;
15096;SDS011;7649;52.084;7.478;2023-02-19T05:54:46;9.13;;;6.47;;
15096;SDS011;7649;52.084;7.478;2023-02-19T05:57:14;9.23;;;6.90;;
15096;SDS011;7649;52.084;7.478;2023-02-19T05:59:42;9.13;;;6.30;;
15096;SDS011;7649;52.084;7.478;2023-02-19T06:02:12;9.27;;;6.63;;
15096;SDS011;7649;52.084;7.478;2023-02-19T06:04:40;11.17;;;6.93;;
15096;SDS011;7649;52.084;7.478;2023-02-19T06:07:10;12.50;;;7.30;;
15096;SDS011;7649;52.084;7.478;2023-02-19T06:09:38;7.60;;;5.87;;
15096;SDS011;7649;52.084;7.478;2023-02-19T06:12:06;8.17;;;7.07;;
15096;SDS011;7649;52.084;7.478;2023-02-19T06:14:34;10.37;;;6.77;;
15096;SDS011;7649;52.084;7.478;2023-02-19T06:17:03;10.10;;;6.87;;
15096;SDS011;7649;52.084;7.478;2023-02-19T06:19:32;9.93;;;6.93;;
15096;SDS011;7649;52.084;7.478;2023-02-19T06:22:01;7.53;;;6.60;;
15096;SDS011;7649;52.084;7.478;2023-02-19T06:24:29;10.03;;;7.10;;
15096;SDS011;7649;52.084;7.478;2023-02-19T06:26:57;8.83;;;6.30;;
15096;SDS011;7649;52.084;7.478;2023-02-19T06:29:26;8.57;;;6.83;;
15096;SDS011;7649;52.084;7.478;2023-02-19T06:31:54;8.70;;;6.27;;
15096;SDS011;7649;52.084;7.478;2023-02-19T06:34:22;12.40;;;7.20;;
15096;SDS011;7649;52.084;7.478;2023-02-19T06:36:52;11.83;;;6.70;;
15096;SDS011;7649;52.084;7.478;2023-02-19T06:39:23;10.83;;;7.20;;
15096;SDS011;7649;52.084;7.478;2023-02-19T06:41:53;7.97;;;5.83;;
15096;SDS011;7649;52.084;7.478;2023-02-19T06:44:21;8.70;;;6.10;;
15096;SDS011;7649;52.084;7.478;2023-02-19T06:46:50;8.40;;;6.60;;
15096;SDS011;7649;52.084;7.478;2023-02-19T06:49:18;9.30;;;7.13;;
15096;SDS011;7649;52.084;7.478;2023-02-19T06:51:46;11.10;;;6.40;;
15096;SDS011;7649;52.084;7.478;2023-02-19T06:54:16;11.60;;;6.73;;
15096;SDS011;7649;52.084;7.478;2023-02-19T06:56:44;9.60;;;6.33;;
15096;SDS011;7649;52.084;7.478;2023-02-19T06:59:13;11.00;;;5.93;;
15096;SDS011;7649;52.084;7.478;2023-02-19T07:01:43;11.80;;;6.73;;
15096;SDS011;7649;52.084;7.478;2023-02-19T07:04:11;12.27;;;7.13;;
15096;SDS011;7649;52.084;7.478;2023-02-19T07:06:40;9.87;;;7.03;;
15096;SDS011;7649;52.084;7.478;2023-02-19T07:09:08;11.00;;;6.80;;
15096;SDS011;7649;52.084;7.478;2023-02-19T07:11:38;12.73;;;7.83;;
15096;SDS011;7649;52.084;7.478;2023-02-19T07:14:07;8.97;;;7.23;;
15096;SDS011;7649;52.084;7.478;2023-02-19T07:16:36;9.93;;;7.37;;
15096;SDS011;7649;52.084;7.478;2023-02-19T07:19:04;11.73;;;6.30;;
15096;SDS011;7649;52.084;7.478;2023-02-19T07:21:32;11.97;;;6.50;;
15096;SDS011;7649;52.084;7.478;2023-02-19T07:24:03;12.37;;;7.10;;
15096;SDS011;7649;52.084;7.478;2023-02-19T07:26:31;10.33;;;6.73;;
15096;SDS011;7649;52.084;7.478;2023-02-19T07:29:01;9.83;;;6.87;;
15096;SDS011;7649;52.084;7.478;2023-02-19T07:31:29;11.93;;;7.17;;
15096;SDS011;7649;52.084;7.478;2023-02-19T07:33:57;10.23;;;7.13;;
15096;SDS011;7649;52.084;7.478;2023-02-19T07:36:26;10.47;;;7.00;;
15096;SDS011;7649;52.084;7.478;2023-02-19T07:38:54;4.50;;;4.10;;
15096;SDS011;7649;52.084;7.478;2023-02-19T07:41:23;3.20;;;2.90;;
15096;SDS011;7649;52.084;7.478;2023-02-19T07:43:52;4.10;;;3.20;;
15096;SDS011;7649;52.084;7.478;2023-02-19T07:46:22;3.00;;;2.80;;
15096;SDS011;7649;52.084;7.478;2023-02-19T07:48:50;2.80;;;2.60;;
15096;SDS011;7649;52.084;7.478;2023-02-19T07:51:19;2.73;;;2.40;;
15096;SDS011;7649;52.084;7.478;2023-02-19T07:53:47;3.00;;;2.70;;
15096;SDS011;7649;52.084;7.478;2023-02-19T07:56:18;2.53;;;2.37;;
15096;SDS011;7649;52.084;7.478;2023-02-19T07:58:46;2.10;;;2.00;;
15096;SDS011;7649;52.084;7.478;2023-02-19T08:01:15;2.30;;;2.20;;
15096;SDS011;7649;52.084;7.478;2023-02-19T08:03:45;2.17;;;2.07;;
15096;SDS011;7649;52.084;7.478;2023-02-19T08:06:15;2.63;;;2.30;;
15096;SDS011;7649;52.084;7.478;2023-02-19T08:08:43;1.90;;;1.80;;
15096;SDS011;7649;52.084;7.478;2023-02-19T08:11:12;1.90;;;1.80;;
15096;SDS011;7649;52.084;7.478;2023-02-19T08:13:58;1.93;;;1.83;;
15096;SDS011;7649;52.084;7.478;2023-02-19T08:16:27;2.33;;;1.90;;
15096;SDS011;7649;52.084;7.478;2023-02-19T08:19:09;2.60;;;1.97;;
15096;SDS011;7649;52.084;7.478;2023-02-19T08:21:38;2.23;;;2.13;;
15096;SDS011;7649;52.084;7.478;2023-02-19T08:24:06;2.63;;;2.10;;
15096;SDS011;7649;52.084;7.478;2023-02-19T08:26:35;2.00;;;1.73;;
15096;SDS011;7649;52.084;7.478;2023-02-19T08:29:03;2.00;;;1.90;;
15096;SDS011;7649;52.084;7.478;2023-02-19T08:31:32;1.20;;;1.20;;
15096;SDS011;7649;52.084;7.478;2023-02-19T08:34:00;2.60;;;1.60;;
15096;SDS011;7649;52.084;7.478;2023-02-19T08:36:30;2.13;;;1.40;;
15096;SDS011;7649;52.084;7.478;2023-02-19T08:38:58;2.00;;;1.67;;
15096;SDS011;7649;52.084;7.478;2023-02-19T08:41:26;3.00;;;2.70;;
15096;SDS011;7649;52.084;7.478;2023-02-19T08:43:55;2.93;;;2.10;;
15096;SDS011;7649;52.084;7.478;2023-02-19T08:46:23;2.20;;;2.10;;
15096;SDS011;7649;52.084;7.478;2023-02-19T08:48:51;2.97;;;2.70;;
15096;SDS011;7649;52.084;7.478;2023-02-19T08:51:20;2.23;;;2.10;;
15096;SDS011;7649;52.084;7.478;2023-02-19T08:53:49;2.70;;;2.50;;
15096;SDS011;7649;52.084;7.478;2023-02-19T08:56:18;3.30;;;3.00;;
15096;SDS011;7649;52.084;7.478;2023-02-19T08:58:46;3.57;;;3.20;;
15096;SDS011;7649;52.084;7.478;2023-02-19T09:01:15;4.10;;;2.50;;
15096;SDS011;7649;52.084;7.478;2023-02-19T09:03:44;3.00;;;2.70;;
15096;SDS011;7649;52.084;7.478;2023-02-19T09:06:13;8.53;;;6.60;;
15096;SDS011;7649;52.084;7.478;2023-02-19T09:08:42;2.73;;;2.20;;
15096;SDS011;7649;52.084;7.478;2023-02-19T09:11:12;2.53;;;2.33;;
15096;SDS011;7649;52.084;7.478;2023-02-19T09:13:41;2.63;;;2.43;;
15096;SDS011;7649;52.084;7.478;2023-02-19T09:16:09;3.73;;;2.80;;
15096;SDS011;7649;52.084;7.478;2023-02-19T09:18:38;2.37;;;2.17;;
15096;SDS011;7649;52.084;7.478;2023-02-19T09:21:06;2.80;;;2.60;;
15096;SDS011;7649;52.084;7.478;2023-02-19T09:23:35;3.93;;;2.90;;
15096;SDS011;7649;52.084;7.478;2023-02-19T09:26:04;2.80;;;2.60;;
15096;SDS011;7649;52.084;7.478;2023-02-19T09:28:36;3.13;;;2.87;;
15096;SDS011;7649;52.084;7.478;2023-02-19T09:31:07;2.70;;;2.50;;
15096;SDS011;7649;52.084;7.478;2023-02-19T09:33:36;2.60;;;2.40;;
15096;SDS011;7649;52.084;7.478;2023-02-19T09:36:05;2.90;;;2.60;;
15096;SDS011;7649;52.084;7.478;2023-02-19T09:38:33;2.83;;;2.63;;
15096;SDS011;7649;52.084;7.478;2023-02-19T09:41:04;4.70;;;3.67;;
15096;SDS011;7649;52.084;7.478;2023-02-19T09:43:33;3.47;;;3.13;;
15096;SDS011;7649;52.084;7.478;2023-02-19T09:46:05;3.47;;;2.90;;
15096;SDS011;7649;52.084;7.478;2023-02-19T09:48:36;3.97;;;3.40;;
15096;SDS011;7649;52.084;7.478;2023-02-19T09:51:05;3.67;;;3.33;;
15096;SDS011;7649;52.084;7.478;2023-02-19T09:53:36;4.10;;;3.70;;
15096;SDS011;7649;52.084;7.478;2023-02-19T09:56:07;3.30;;;3.10;;
15096;SDS011;7649;52.084;7.478;2023-02-19T09:58:39;3.90;;;3.60;;
15096;SDS011;7649;52.084;7.478;2023-02-19T10:01:11;4.20;;;3.80;;
15096;SDS011;7649;52.084;7.478;2023-02-19T10:03:40;4.17;;;3.83;;
15096;SDS011;7649;52.084;7.478;2023-02-19T10:06:13;10.13;;;9.07;;
15096;SDS011;7649;52.084;7.478;2023-02-19T10:08:44;4.20;;;3.80;;
15096;SDS011;7649;52.084;7.478;2023-02-19T10:11:12;4.03;;;3.63;;
15096;SDS011;7649;52.084;7.478;2023-02-19T10:13:42;5.43;;;4.00;;
15096;SDS011;7649;52.084;7.478;2023-02-19T10:16:13;7.90;;;4.60;;
15096;SDS011;7649;52.084;7.478;2023-02-19T10:18:43;4.37;;;3.97;;
15096;SDS011;7649;52.084;7.478;2023-02-19T10:21:13;5.53;;;3.70;;
15096;SDS011;7649;52.084;7.478;2023-02-19T10:23:42;4.83;;;4.33;;
15096;SDS011;7649;52.084;7.478;2023-02-19T10:26:12;4.17;;;3.77;;
15096;SDS011;7649;52.084;7.478;2023-02-19T10:28:40;4.93;;;4.53;;
15096;SDS011;7649;52.084;7.478;2023-02-19T10:31:11;4.17;;;3.87;;
15096;SDS011;7649;52.084;7.478;2023-02-19T10:33:51;4.10;;;3.70;;
15096;SDS011;7649;52.084;7.478;2023-02-19T10:36:29;4.00;;;3.70;;
15096;SDS011;7649;52.084;7.478;2023-02-19T10:38:59;3.40;;;3.10;;
15096;SDS011;7649;52.084;7.478;2023-02-19T10:41:31;4.03;;;3.10;;
15096;SDS011;7649;52.084;7.478;2023-02-19T10:44:01;3.20;;;2.90;;
15096;SDS011;7649;52.084;7.478;2023-02-19T10:46:33;3.50;;;3.20;;
15096;SDS011;7649;52.084;7.478;2023-02-19T10:49:05;3.60;;;3.30;;
15096;SDS011;7649;52.084;7.478;2023-02-19T10:51:34;3.00;;;2.80;;
15096;SDS011;7649;52.084;7.478;2023-02-19T10:54:04;2.77;;;2.57;;
15096;SDS011;7649;52.084;7.478;2023-02-19T10:56:33;2.80;;;2.60;;
15096;SDS011;7649;52.084;7.478;2023-02-19T10:59:13;3.30;;;3.00;;
15096;SDS011;7649;52.084;7.478;2023-02-19T11:01:52;4.20;;;2.90;;
15096;SDS011;7649;52.084;7.478;2023-02-19T11:04:22;2.90;;;2.50;;
15096;SDS011;7649;52.084;7.478;2023-02-19T11:06:51;2.87;;;2.67;;
15096;SDS011;7649;52.084;7.478;2023-02-19T11:09:24;2.80;;;2.60;;
15096;SDS011;7649;52.084;7.478;2023-02-19T11:11:54;2.80;;;2.60;;
15096;SDS011;7649;52.084;7.478;2023-02-19T11:14:24;3.10;;;2.80;;
15096;SDS011;7649;52.084;7.478;2023-02-19T11:16:53;2.77;;;2.57;;
15096;SDS011;7649;52.084;7.478;2023-02-19T11:19:25;3.17;;;2.87;;
15096;SDS011;7649;52.084;7.478;2023-02-19T11:21:54;3.67;;;2.77;;
15096;SDS011;7649;52.084;7.478;2023-02-19T11:24:27;3.13;;;2.87;;
15096;SDS011;7649;52.084;7.478;2023-02-19T11:26:56;2.70;;;2.50;;
15096;SDS011;7649;52.084;7.478;2023-02-19T11:29:25;2.60;;;2.50;;
15096;SDS011;7649;52.084;7.478;2023-02-19T11:34:48;2.60;;;2.40;;
15096;SDS011;7649;52.084;7.478;2023-02-19T11:37:17;3.30;;;3.00;;
15096;SDS011;7649;52.084;7.478;2023-02-19T11:39:47;2.70;;;2.50;;
15096;SDS011;7649;52.084;7.478;2023-02-19T11:42:29;3.70;;;3.50;;
15096;SDS011;7649;52.084;7.478;2023-02-19T11:45:15;3.10;;;2.80;;
15096;SDS011;7649;52.084;7.478;2023-02-19T11:47:52;3.27;;;3.00;;
15096;SDS011;7649;52.084;7.478;2023-02-19T11:50:26;3.30;;;3.10;;
15096;SDS011;7649;52.084;7.478;2023-02-19T11:53:00;2.90;;;2.70;;
15096;SDS011;7649;52.084;7.478;2023-02-19T11:55:34;2.63;;;2.47;;
15096;SDS011;7649;52.084;7.478;2023-02-19T11:58:08;3.43;;;3.10;;
15096;SDS011;7649;52.084;7.478;2023-02-19T12:00:42;2.80;;;2.60;;
15096;SDS011;7649;52.084;7.478;2023-02-19T12:03:16;2.83;;;2.63;;
15096;SDS011;7649;52.084;7.478;2023-02-19T12:05:56;2.50;;;2.37;;
15096;SDS011;7649;52.084;7.478;2023-02-19T12:08:30;2.40;;;2.30;;
15096;SDS011;7649;52.084;7.478;2023-02-19T12:11:15;3.33;;;3.13;;
15096;SDS011;7649;52.084;7.478;2023-02-19T12:13:58;2.87;;;2.67;;
15096;SDS011;7649;52.084;7.478;2023-02-19T12:16:29;3.50;;;3.20;;
15096;SDS011;7649;52.084;7.478;2023-02-19T12:21:52;3.13;;;2.87;;
15096;SDS011;7649;52.084;7.478;2023-02-19T12:24:46;3.00;;;2.80;;
15096;SDS011;7649;52.084;7.478;2023-02-19T12:27:25;2.97;;;2.77;;
15096;SDS011;7649;52.084;7.478;2023-02-19T12:30:00;2.67;;;2.37;;
15096;SDS011;7649;52.084;7.478;2023-02-19T12:32:37;2.60;;;2.40;;
15096;SDS011;7649;52.084;7.478;2023-02-19T12:35:20;3.10;;;2.80;;
15096;SDS011;7649;52.084;7.478;2023-02-19T12:37:54;2.73;;;2.53;;
15096;SDS011;7649;52.084;7.478;2023-02-19T12:40:37;3.13;;;2.70;;
15096;SDS011;7649;52.084;7.478;2023-02-19T12:43:10;2.60;;;2.40;;
15096;SDS011;7649;52.084;7.478;2023-02-19T12:45:41;7.27;;;3.00;;
15096;SDS011;7649;52.084;7.478;2023-02-19T12:48:12;3.83;;;2.67;;
15096;SDS011;7649;52.084;7.478;2023-02-19T12:50:41;3.17;;;2.87;;
15096;SDS011;7649;52.084;7.478;2023-02-19T12:53:16;3.60;;;3.40;;
15096;SDS011;7649;52.084;7.478;2023-02-19T12:55:45;5.23;;;3.80;;
15096;SDS011;7649;52.084;7.478;2023-02-19T12:58:15;5.37;;;4.87;;
15096;SDS011;7649;52.084;7.478;2023-02-19T13:00:48;2.60;;;2.40;;
15096;SDS011;7649;52.084;7.478;2023-02-19T13:03:17;2.73;;;2.53;;
15096;SDS011;7649;52.084;7.478;2023-02-19T13:05:48;2.63;;;2.43;;
15096;SDS011;7649;52.084;7.478;2023-02-19T13:08:20;3.50;;;3.20;;
15096;SDS011;7649;52.084;7.478;2023-02-19T13:10:52;2.50;;;2.30;;
15096;SDS011;7649;52.084;7.478;2023-02-19T13:13:24;2.40;;;2.20;;
15096;SDS011;7649;52.084;7.478;2023-02-19T13:15:54;2.20;;;2.00;;
15096;SDS011;7649;52.084;7.478;2023-02-19T13:18:24;3.10;;;2.43;;
15096;SDS011;7649;52.084;7.478;2023-02-19T13:20:55;3.73;;;2.47;;
15096;SDS011;7649;52.084;7.478;2023-02-19T13:23:26;2.40;;;2.00;;
15096;SDS011;7649;52.084;7.478;2023-02-19T13:26:18;3.07;;;2.40;;
15096;SDS011;7649;52.084;7.478;2023-02-19T13:28:56;3.43;;;2.27;;
15096;SDS011;7649;52.084;7.478;2023-02-19T13:31:31;2.30;;;2.10;;
15096;SDS011;7649;52.084;7.478;2023-02-19T13:34:04;3.03;;;2.30;;
15096;SDS011;7649;52.084;7.478;2023-02-19T13:36:36;2.60;;;2.13;;
15096;SDS011;7649;52.084;7.478;2023-02-19T13:39:06;4.10;;;2.30;;
15096;SDS011;7649;52.084;7.478;2023-02-19T13:41:36;2.70;;;2.50;;
15096;SDS011;7649;52.084;7.478;2023-02-19T13:44:06;2.53;;;2.20;;
15096;SDS011;7649;52.084;7.478;2023-02-19T13:46:44;2.73;;;2.47;;
15096;SDS011;7649;52.084;7.478;2023-02-19T13:49:23;2.37;;;2.17;;
15096;SDS011;7649;52.084;7.478;2023-02-19T13:51:52;7.20;;;2.50;;
15096;SDS011;7649;52.084;7.478;2023-02-19T13:54:23;2.50;;;2.30;;
15096;SDS011;7649;52.084;7.478;2023-02-19T13:59:39;3.00;;;2.37;;
15096;SDS011;7649;52.084;7.478;2023-02-19T14:02:09;2.50;;;2.30;;
15096;SDS011;7649;52.084;7.478;2023-02-19T14:04:46;3.07;;;2.57;;
15096;SDS011;7649;52.084;7.478;2023-02-19T14:10:10;2.73;;;2.53;;
15096;SDS011;7649;52.084;7.478;2023-02-19T14:12:39;6.43;;;2.70;;
15096;SDS011;7649;52.084;7.478;2023-02-19T14:17:54;3.83;;;2.40;;
15096;SDS011;7649;52.084;7.478;2023-02-19T14:20:38;2.67;;;2.47;;
15096;SDS011;7649;52.084;7.478;2023-02-19T14:23:13;3.47;;;2.47;;
15096;SDS011;7649;52.084;7.478;2023-02-19T14:25:44;2.40;;;2.20;;
15096;SDS011;7649;52.084;7.478;2023-02-19T14:28:16;5.73;;;2.60;;
15096;SDS011;7649;52.084;7.478;2023-02-19T14:30:46;2.20;;;2.10;;
15096;SDS011;7649;52.084;7.478;2023-02-19T14:33:17;2.20;;;2.10;;
15096;SDS011;7649;52.084;7.478;2023-02-19T14:35:46;2.73;;;2.40;;
15096;SDS011;7649;52.084;7.478;2023-02-19T14:38:17;2.67;;;2.47;;
15096;SDS011;7649;52.084;7.478;2023-02-19T14:40:50;2.07;;;1.90;;
15096;SDS011;7649;52.084;7.478;2023-02-19T14:43:20;2.57;;;2.37;;
15096;SDS011;7649;52.084;7.478;2023-02-19T14:45:50;2.33;;;2.20;;
15096;SDS011;7649;52.084;7.478;2023-02-19T14:48:20;2.10;;;2.00;;
15096;SDS011;7649;52.084;7.478;2023-02-19T14:50:50;2.13;;;2.03;;
15096;SDS011;7649;52.084;7.478;2023-02-19T14:53:20;2.60;;;2.40;;
15096;SDS011;7649;52.084;7.478;2023-02-19T14:55:51;2.67;;;2.43;;
15096;SDS011;7649;52.084;7.478;2023-02-19T14:58:22;2.57;;;2.37;;
15096;SDS011;7649;52.084;7.478;2023-02-19T15:00:51;2.77;;;2.20;;
15096;SDS011;7649;52.084;7.478;2023-02-19T15:03:28;2.20;;;2.00;;
15096;SDS011;7649;52.084;7.478;2023-02-19T15:05:58;2.60;;;2.40;;
15096;SDS011;7649;52.084;7.478;2023-02-19T15:08:32;2.47;;;2.30;;
15096;SDS011;7649;52.084;7.478;2023-02-19T15:11:06;3.03;;;2.30;;
15096;SDS011;7649;52.084;7.478;2023-02-19T15:13:36;2.57;;;2.30;;
15096;SDS011;7649;52.084;7.478;2023-02-19T15:16:14;3.13;;;2.63;;
15096;SDS011;7649;52.084;7.478;2023-02-19T15:18:43;2.83;;;2.63;;
15096;SDS011;7649;52.084;7.478;2023-02-19T15:21:23;3.70;;;2.30;;
15096;SDS011;7649;52.084;7.478;2023-02-19T15:23:54;3.00;;;2.07;;
15096;SDS011;7649;52.084;7.478;2023-02-19T15:26:36;2.43;;;2.23;;
15096;SDS011;7649;52.084;7.478;2023-02-19T15:29:10;3.47;;;3.17;;
15096;SDS011;7649;52.084;7.478;2023-02-19T15:31:45;4.33;;;2.93;;
15096;SDS011;7649;52.084;7.478;2023-02-19T15:34:31;3.53;;;3.20;;
15096;SDS011;7649;52.084;7.478;2023-02-19T15:37:00;3.43;;;3.13;;
15096;SDS011;7649;52.084;7.478;2023-02-19T15:39:31;3.07;;;2.77;;